createdAt,value
2024-04-19T00:00:02.924Z,4.03
2024-04-19T00:03:08.371Z,3.53
2024-04-19T00:06:13.426Z,4.83
2024-04-19T00:09:20.597Z,4.93
2024-04-19T00:12:25.181Z,4.28
2024-04-19T00:15:29.817Z,4.30
2024-04-19T00:18:34.544Z,3.87
2024-04-19T00:21:39.336Z,4.20
2024-04-19T00:24:46.953Z,4.38
2024-04-19T00:27:49.065Z,5.63
2024-04-19T00:30:57.644Z,4.15
2024-04-19T00:33:59.801Z,6.50
2024-04-19T00:37:04.464Z,3.73
2024-04-19T00:40:12.639Z,5.75
2024-04-19T00:43:14.631Z,5.13
2024-04-19T00:46:19.414Z,4.38
2024-04-19T00:49:21.387Z,4.67
2024-04-19T00:52:25.942Z,5.30
2024-04-19T00:55:32.376Z,3.97
2024-04-19T00:58:37.524Z,6.18
2024-04-19T01:01:40.930Z,4.18
2024-04-19T01:04:45.976Z,6.93
2024-04-19T01:07:48.670Z,4.17
2024-04-19T01:10:56.769Z,4.00
2024-04-19T01:13:59.002Z,4.93
2024-04-19T01:17:03.949Z,4.45
2024-04-19T01:20:07.002Z,4.47
2024-04-19T01:23:12.906Z,4.43
2024-04-19T01:26:20.430Z,5.78
2024-04-19T01:29:25.212Z,5.07
2024-04-19T01:32:30.228Z,4.53
2024-04-19T01:35:35.382Z,5.40
2024-04-19T01:38:40.033Z,3.77
2024-04-19T01:41:48.036Z,5.53
2024-04-19T01:44:50.102Z,4.85
2024-04-19T01:47:54.800Z,5.32
2024-04-19T01:50:59.462Z,3.83
2024-04-19T01:54:01.430Z,5.83
2024-04-19T01:57:08.699Z,5.72
2024-04-19T02:00:12.091Z,5.53
2024-04-19T02:03:16.809Z,4.68
2024-04-19T02:06:18.828Z,4.87
2024-04-19T02:09:23.446Z,6.80
2024-04-19T02:12:28.094Z,4.20
2024-04-19T02:15:32.768Z,4.40
2024-04-19T02:18:37.338Z,5.70
2024-04-19T02:21:41.963Z,4.80
2024-04-19T02:24:46.597Z,5.50
2024-04-19T02:28:09.892Z,5.00
2024-04-19T02:31:14.704Z,5.95
2024-04-19T02:34:19.556Z,4.78
2024-04-19T02:37:24.185Z,5.03
2024-04-19T02:40:28.689Z,5.53
2024-04-19T02:43:35.871Z,6.88
2024-04-19T02:46:40.421Z,5.40
2024-04-19T02:49:45.101Z,6.20
2024-04-19T02:52:49.700Z,4.97
2024-04-19T02:55:54.835Z,6.03
2024-04-19T02:59:03.003Z,5.85
2024-04-19T03:02:07.927Z,4.97
2024-04-19T03:05:12.491Z,5.05
2024-04-19T03:08:17.023Z,4.93
2024-04-19T03:11:21.573Z,5.30
2024-04-19T03:14:28.747Z,5.30
2024-04-19T03:17:34.094Z,8.38
2024-04-19T03:20:38.700Z,5.13
2024-04-19T03:23:43.235Z,6.40
2024-04-19T03:26:47.843Z,7.35
2024-04-19T03:29:57.076Z,5.72
2024-04-19T03:33:01.782Z,7.10
2024-04-19T03:36:07.984Z,6.53
2024-04-19T03:39:13.136Z,4.73
2024-04-19T03:42:21.675Z,7.80
2024-04-19T03:45:42.173Z,8.05
2024-04-19T03:48:46.873Z,6.38
2024-04-19T03:51:52.247Z,8.30
2024-04-19T03:54:58.000Z,6.50
2024-04-19T03:58:02.720Z,7.68
2024-04-19T04:01:10.358Z,4.40
2024-04-19T04:04:14.983Z,5.18
2024-04-19T04:07:19.626Z,5.70
2024-04-19T04:10:24.246Z,5.10
2024-04-19T04:13:28.839Z,7.28
2024-04-19T04:16:36.011Z,5.20
2024-04-19T04:19:40.600Z,5.60
2024-04-19T04:22:45.203Z,7.10
2024-04-19T04:25:49.904Z,7.07
2024-04-19T04:28:54.507Z,6.47
2024-04-19T04:32:01.762Z,6.07
2024-04-19T04:35:07.369Z,5.78
2024-04-19T04:38:11.976Z,7.93
2024-04-19T04:41:16.518Z,7.15
2024-04-19T04:44:21.004Z,5.80
2024-04-19T04:47:28.382Z,6.70
2024-04-19T04:50:33.066Z,7.07
2024-04-19T04:53:37.625Z,7.32
2024-04-19T04:56:42.135Z,5.97
2024-04-19T04:59:46.733Z,7.37
2024-04-19T05:02:53.918Z,5.43
2024-04-19T05:05:58.502Z,6.63
2024-04-19T05:09:03.110Z,5.93
2024-04-19T05:12:09.654Z,6.88
2024-04-19T05:15:14.236Z,6.50
2024-04-19T05:18:21.809Z,8.35
2024-04-19T05:21:26.443Z,6.82
2024-04-19T05:24:32.000Z,7.68
2024-04-19T05:27:36.635Z,7.15
2024-04-19T05:30:41.379Z,7.50
2024-04-19T05:33:48.683Z,8.90
2024-04-19T05:36:53.397Z,8.75
2024-04-19T05:39:57.981Z,7.95
2024-04-19T05:43:02.619Z,6.68
2024-04-19T05:46:07.557Z,9.40
2024-04-19T05:49:14.754Z,9.38
2024-04-19T05:52:19.326Z,8.27
2024-04-19T05:55:23.853Z,8.10
2024-04-19T05:58:28.385Z,7.78
2024-04-19T06:01:33.049Z,7.80
2024-04-19T06:04:40.204Z,9.45
2024-04-19T06:07:44.761Z,8.15
2024-04-19T06:10:49.257Z,8.73
2024-04-19T06:13:54.010Z,6.90
2024-04-19T06:16:58.677Z,8.43
2024-04-19T06:23:09.165Z,6.53
2024-04-19T06:26:14.122Z,7.22
2024-04-19T06:29:18.754Z,6.22
2024-04-19T06:32:23.420Z,5.97
2024-04-19T06:35:28.028Z,7.15
2024-04-19T06:38:36.992Z,5.43
2024-04-19T06:41:44.063Z,6.95
2024-04-19T06:44:48.829Z,7.35
2024-04-19T06:47:53.525Z,6.57
2024-04-19T06:50:58.336Z,7.10
2024-04-19T06:54:05.687Z,7.15
2024-04-19T06:57:10.355Z,8.38
2024-04-19T07:00:27.751Z,7.82
2024-04-19T07:03:41.627Z,8.37
2024-04-19T07:06:47.846Z,8.07
2024-04-19T07:09:57.699Z,10.40
2024-04-19T07:13:02.912Z,9.73
2024-04-19T07:16:08.230Z,6.90
2024-04-19T07:19:12.960Z,8.50
2024-04-19T07:22:19.386Z,9.52
2024-04-19T07:25:26.864Z,9.40
2024-04-19T07:28:31.521Z,7.45
2024-04-19T07:31:36.092Z,8.77
2024-04-19T07:34:41.036Z,7.43
2024-04-19T07:37:45.711Z,7.63
2024-04-19T07:40:52.882Z,7.72
2024-04-19T07:44:01.262Z,8.52
2024-04-19T07:47:08.511Z,7.90
2024-04-19T07:50:13.170Z,7.30
2024-04-19T07:53:21.100Z,9.40
2024-04-19T07:56:32.268Z,8.18
2024-04-19T07:59:36.899Z,7.88
2024-04-19T08:02:41.517Z,8.77
2024-04-19T08:05:46.239Z,9.67
2024-04-19T08:08:50.826Z,9.85
2024-04-19T08:11:58.147Z,8.70
2024-04-19T08:15:02.755Z,9.80
2024-04-19T08:18:07.697Z,8.60
2024-04-19T08:21:12.439Z,8.77
2024-04-19T08:24:17.041Z,9.10
2024-04-19T08:27:25.371Z,8.97
2024-04-19T08:30:30.130Z,9.73
2024-04-19T08:33:34.748Z,10.38
2024-04-19T08:36:39.609Z,9.80
2024-04-19T08:39:46.557Z,10.38
2024-04-19T08:42:54.962Z,10.53
2024-04-19T08:46:03.921Z,11.47
2024-04-19T08:49:12.854Z,10.07
2024-04-19T08:52:39.797Z,10.48
2024-04-19T08:55:45.488Z,9.00
2024-04-19T08:58:54.895Z,10.03
2024-04-19T09:01:59.433Z,8.87
2024-04-19T09:05:04.652Z,10.10
2024-04-19T09:08:10.491Z,9.85
2024-04-19T09:11:16.903Z,8.87
2024-04-19T09:14:24.114Z,10.00
2024-04-19T09:17:29.154Z,11.48
2024-04-19T09:20:34.058Z,10.07
2024-04-19T09:23:38.791Z,9.60
2024-04-19T09:26:43.319Z,9.60
2024-04-19T09:29:50.757Z,9.55
2024-04-19T09:32:55.749Z,11.38
2024-04-19T09:36:00.479Z,10.55
2024-04-19T09:39:07.391Z,9.40
2024-04-19T09:42:12.713Z,8.10
2024-04-19T09:45:23.856Z,9.10
2024-04-19T09:48:33.585Z,9.00
2024-04-19T09:51:44.975Z,9.65
2024-04-19T09:54:50.563Z,10.00
2024-04-19T09:57:56.628Z,8.13
2024-04-19T10:01:05.194Z,8.00
2024-04-19T10:04:10.587Z,7.53
2024-04-19T10:07:16.812Z,6.65
2024-04-19T10:10:21.619Z,8.27
2024-04-19T10:13:31.772Z,8.17
2024-04-19T10:16:40.166Z,5.78
2024-04-19T10:19:52.369Z,6.10
2024-04-19T10:22:59.043Z,6.65
2024-04-19T10:26:03.787Z,7.20
2024-04-19T10:29:09.590Z,6.80
2024-04-19T10:32:20.556Z,6.82
2024-04-19T10:35:45.886Z,6.04
2024-04-19T10:38:50.871Z,6.40
2024-04-19T10:41:56.707Z,7.35
2024-04-19T10:45:01.513Z,6.80
2024-04-19T10:48:10.264Z,6.72
2024-04-19T10:51:17.231Z,6.03
2024-04-19T10:54:22.295Z,6.30
2024-04-19T10:57:29.951Z,5.32
2024-04-19T11:00:34.964Z,5.15
2024-04-19T11:03:42.742Z,5.05
2024-04-19T11:06:47.406Z,5.53
2024-04-19T11:09:53.371Z,4.27
2024-04-19T11:12:58.371Z,3.88
2024-04-19T11:16:03.426Z,5.35
2024-04-19T11:19:11.082Z,2.70
2024-04-19T11:22:16.263Z,2.78
2024-04-19T11:25:20.869Z,1.70
2024-04-19T11:28:25.827Z,2.55
2024-04-19T11:31:30.375Z,2.30
2024-04-19T11:34:39.518Z,1.70
2024-04-19T11:37:45.417Z,1.52
2024-04-19T11:40:52.691Z,3.30
2024-04-19T11:44:00.699Z,2.42
2024-04-19T11:47:08.703Z,3.65
2024-04-19T11:50:16.625Z,3.28
2024-04-19T11:53:21.419Z,2.92
2024-04-19T11:56:26.146Z,3.80
2024-04-19T11:59:31.164Z,3.65
2024-04-19T12:02:35.655Z,4.18
2024-04-19T12:05:43.129Z,4.05
2024-04-19T12:08:48.080Z,3.20
2024-04-19T12:12:32.903Z,3.50
2024-04-19T12:16:00.074Z,3.08
2024-04-19T12:18:42.771Z,4.05
2024-04-19T12:21:54.540Z,3.13
2024-04-19T12:25:01.352Z,3.35
2024-04-19T12:31:11.875Z,3.38
2024-04-19T12:34:18.951Z,4.13
2024-04-19T12:37:26.402Z,3.30
2024-04-19T12:40:33.199Z,3.63
2024-04-19T12:43:38.028Z,3.10
2024-04-19T12:46:43.199Z,4.43
2024-04-19T12:49:48.123Z,3.67
2024-04-19T12:52:55.318Z,4.20
2024-04-19T12:56:00.191Z,3.50
2024-04-19T12:59:05.122Z,3.50
2024-04-19T13:02:10.053Z,3.15
2024-04-19T13:05:14.752Z,4.38
2024-04-19T13:08:22.115Z,3.50
2024-04-19T13:11:26.804Z,4.93
2024-04-19T13:14:31.345Z,4.70
2024-04-19T13:17:39.498Z,3.90
2024-04-19T13:20:44.666Z,4.28
2024-04-19T13:23:51.880Z,4.55
2024-04-19T13:26:56.466Z,3.15
2024-04-19T13:30:01.386Z,3.83
2024-04-19T13:33:07.009Z,6.88
2024-04-19T13:36:12.277Z,4.28
2024-04-19T13:39:19.775Z,6.27
2024-04-19T13:42:24.777Z,5.47
2024-04-19T13:45:29.384Z,4.28
2024-04-19T13:48:39.051Z,4.38
2024-04-19T13:51:44.001Z,4.93
2024-04-19T13:54:51.427Z,4.97
2024-04-19T13:57:56.079Z,5.03
2024-04-19T14:01:01.926Z,4.20
2024-04-19T14:04:06.928Z,4.68
2024-04-19T14:07:11.626Z,4.68
2024-04-19T14:10:18.982Z,5.07
2024-04-19T14:13:23.488Z,5.73
2024-04-19T14:16:28.436Z,5.67
2024-04-19T14:19:33.626Z,4.75
2024-04-19T14:22:38.460Z,4.70
2024-04-19T14:25:46.314Z,7.82
2024-04-19T14:28:51.241Z,4.40
2024-04-19T14:31:55.865Z,5.33
2024-04-19T14:35:00.503Z,4.55
2024-04-19T14:38:05.753Z,4.95
2024-04-19T14:41:12.925Z,4.60
2024-04-19T14:44:18.482Z,5.03
2024-04-19T14:47:24.516Z,5.17
2024-04-19T14:50:29.791Z,4.85
2024-04-19T14:53:34.302Z,5.75
2024-04-19T14:56:41.751Z,4.05
2024-04-19T14:59:46.260Z,3.33
2024-04-19T15:02:51.348Z,2.70
2024-04-19T15:05:57.466Z,2.22
2024-04-19T15:09:03.303Z,3.42
2024-04-19T15:12:12.027Z,1.70
2024-04-19T15:15:17.034Z,1.50
2024-04-19T15:18:21.780Z,2.00
2024-04-19T15:21:26.486Z,2.10
2024-04-19T15:24:31.238Z,1.95
2024-04-19T15:27:38.740Z,2.33
2024-04-19T15:30:44.223Z,2.03
2024-04-19T15:33:49.340Z,1.70
2024-04-19T15:36:54.166Z,2.20
2024-04-19T15:39:59.262Z,1.70
2024-04-19T15:43:06.635Z,2.20
2024-04-19T15:46:12.554Z,4.43
2024-04-19T15:49:17.198Z,4.13
2024-04-19T15:52:22.562Z,3.17
2024-04-19T15:55:27.471Z,3.28
2024-04-19T15:58:35.598Z,4.68
2024-04-19T16:01:40.926Z,4.17
2024-04-19T16:04:45.889Z,3.00
2024-04-19T16:07:54.745Z,4.28
2024-04-19T16:11:00.047Z,3.25
2024-04-19T16:14:07.406Z,2.95
2024-04-19T16:17:12.947Z,3.23
2024-04-19T16:20:18.499Z,2.93
2024-04-19T16:23:23.076Z,2.97
2024-04-19T16:26:28.477Z,3.33
2024-04-19T16:29:36.886Z,3.25
2024-04-19T16:32:41.911Z,3.33
2024-04-19T16:35:56.304Z,3.37
2024-04-19T16:39:08.730Z,2.53
2024-04-19T16:42:13.446Z,3.40
2024-04-19T16:45:20.877Z,2.90
2024-04-19T16:48:26.584Z,2.77
2024-04-19T16:51:31.593Z,2.33
2024-04-19T16:54:37.517Z,2.97
2024-04-19T16:57:42.104Z,3.65
2024-04-19T17:00:49.830Z,2.50
2024-04-19T17:03:54.860Z,2.57
2024-04-19T17:06:59.485Z,3.97
2024-04-19T17:10:05.695Z,4.18
2024-04-19T17:13:10.775Z,3.22
2024-04-19T17:16:18.419Z,3.40
2024-04-19T17:19:25.101Z,3.37
2024-04-19T17:22:30.082Z,3.57
2024-04-19T17:25:34.927Z,4.00
2024-04-19T17:28:40.179Z,4.65
2024-04-19T17:31:47.647Z,3.80
2024-04-19T17:34:52.799Z,5.63
2024-04-19T17:37:57.715Z,5.23
2024-04-19T17:41:04.303Z,5.30
2024-04-19T17:44:10.066Z,4.38
2024-04-19T17:47:17.878Z,5.82
2024-04-19T17:50:22.981Z,4.97
2024-04-19T17:53:28.222Z,4.17
2024-04-19T17:56:33.048Z,4.80
2024-04-19T17:59:37.921Z,4.35
2024-04-19T18:02:45.674Z,5.35
2024-04-19T18:05:50.667Z,8.00
2024-04-19T18:08:55.769Z,7.83
2024-04-19T18:12:00.430Z,7.72
2024-04-19T18:15:05.310Z,7.82
2024-04-19T18:18:13.114Z,6.43
2024-04-19T18:21:19.360Z,5.20
2024-04-19T18:24:28.278Z,4.07
2024-04-19T18:27:33.128Z,3.70
2024-04-19T18:30:41.043Z,5.10
2024-04-19T18:33:48.491Z,5.63
2024-04-19T18:36:53.244Z,6.77
2024-04-19T18:39:58.224Z,5.40
2024-04-19T18:43:04.340Z,4.97
2024-04-19T18:46:08.924Z,3.90
2024-04-19T18:49:16.520Z,3.40
2024-04-19T18:52:21.117Z,3.57
2024-04-19T18:55:25.839Z,4.97
2024-04-19T18:58:30.680Z,4.18
2024-04-19T19:01:35.339Z,6.10
2024-04-19T19:04:42.739Z,5.30
2024-04-19T19:07:48.377Z,4.53
2024-04-19T19:10:52.871Z,5.53
2024-04-19T19:13:57.531Z,4.68
2024-04-19T19:17:02.173Z,4.70
2024-04-19T19:20:15.171Z,4.18
2024-04-19T19:23:19.900Z,5.60
2024-04-19T19:26:24.568Z,5.67
2024-04-19T19:29:30.781Z,8.02
2024-04-19T19:32:35.609Z,5.55
2024-04-19T19:35:42.811Z,5.47
2024-04-19T19:38:48.658Z,5.87
2024-04-19T19:41:53.304Z,6.47
2024-04-19T19:44:57.997Z,5.18
2024-04-19T19:48:05.134Z,4.80
2024-04-19T19:51:12.606Z,4.25
2024-04-19T19:54:18.825Z,4.00
2024-04-19T19:57:23.785Z,4.53
2024-04-19T20:00:44.780Z,3.30
2024-04-19T20:04:06.983Z,4.15
2024-04-19T20:07:15.316Z,5.22
2024-04-19T20:10:20.339Z,3.37
2024-04-19T20:13:25.618Z,5.13
2024-04-19T20:16:31.056Z,3.00
2024-04-19T20:19:36.213Z,3.63
2024-04-19T20:22:44.348Z,5.40
2024-04-19T20:25:49.382Z,4.13
2024-04-19T20:28:55.030Z,5.30
2024-04-19T20:32:01.089Z,3.00
2024-04-19T20:35:07.431Z,5.35
2024-04-19T20:38:15.000Z,3.85
2024-04-19T20:41:20.540Z,4.57
2024-04-19T20:44:25.611Z,5.60
2024-04-19T20:47:33.390Z,5.23
2024-04-19T20:50:39.608Z,4.63
2024-04-19T20:53:48.911Z,4.00
2024-04-19T20:56:53.815Z,4.75
2024-04-19T20:59:58.611Z,4.87
2024-04-19T21:03:03.506Z,5.07
2024-04-19T21:06:09.571Z,5.63
2024-04-19T21:09:16.868Z,4.57
2024-04-19T21:12:22.805Z,5.13
2024-04-19T21:15:30.968Z,5.23
2024-04-19T21:18:36.686Z,3.90
2024-04-19T21:21:41.375Z,4.78
2024-04-19T21:24:49.652Z,4.88
2024-04-19T21:27:54.218Z,4.03
2024-04-19T21:31:04.573Z,5.75
2024-04-19T21:34:09.895Z,4.38
2024-04-19T21:37:14.471Z,5.18
2024-04-19T21:40:22.048Z,3.80
2024-04-19T21:43:26.802Z,4.05
2024-04-19T21:46:31.533Z,4.22
2024-04-19T21:49:36.091Z,5.00
2024-04-19T21:52:42.386Z,4.03
2024-04-19T21:55:50.605Z,4.27
2024-04-19T21:58:58.550Z,5.15
2024-04-19T22:02:03.242Z,4.20
2024-04-19T22:05:08.110Z,4.90
2024-04-19T22:08:12.838Z,4.38
2024-04-19T22:11:20.905Z,4.93
2024-04-19T22:14:25.708Z,4.57
2024-04-19T22:17:30.503Z,4.95
2024-04-19T22:20:36.198Z,4.25
2024-04-19T22:23:41.108Z,5.35
2024-04-19T22:26:48.316Z,5.03
2024-04-19T22:29:57.540Z,4.75
2024-04-19T22:33:02.609Z,4.40
2024-04-19T22:36:09.298Z,5.13
2024-04-19T22:39:14.495Z,6.15
2024-04-19T22:42:22.332Z,5.63
2024-04-19T22:45:27.271Z,4.45
2024-04-19T22:48:32.215Z,4.97
2024-04-19T22:51:36.884Z,5.00
2024-04-19T22:54:41.598Z,4.18
2024-04-19T22:57:52.580Z,3.92
2024-04-19T23:01:02.187Z,5.70
2024-04-19T23:04:07.310Z,7.00
2024-04-19T23:07:11.896Z,5.07
2024-04-19T23:10:17.352Z,5.10
2024-04-19T23:13:24.727Z,5.07
2024-04-19T23:16:29.506Z,5.13
2024-04-19T23:19:34.852Z,6.20
2024-04-19T23:22:39.428Z,5.28
2024-04-19T23:25:44.096Z,5.85
2024-04-19T23:28:51.311Z,4.60
2024-04-19T23:31:56.049Z,5.20
2024-04-19T23:35:00.610Z,5.07
2024-04-19T23:38:05.585Z,5.82
2024-04-19T23:41:10.349Z,5.10
2024-04-19T23:44:18.259Z,5.68
2024-04-19T23:47:23.010Z,4.97
2024-04-19T23:50:27.692Z,4.70
2024-04-19T23:53:32.479Z,5.88
2024-04-19T23:56:37.180Z,4.60
2024-04-19T23:59:44.653Z,4.63
